createdAt,value
2023-03-19T00:01:19.138Z,97543.56
2023-03-19T00:06:22.896Z,97542.31
2023-03-19T00:11:25.101Z,97534.13
2023-03-19T00:16:27.179Z,97539.22
2023-03-19T00:21:30.641Z,97533.94
2023-03-19T00:26:34.202Z,97527.47
2023-03-19T00:31:36.023Z,97531.22
2023-03-19T00:36:37.843Z,97537.22
2023-03-19T00:41:39.502Z,97548.84
2023-03-19T00:46:41.198Z,97551.41
2023-03-19T00:51:44.089Z,97546.78
2023-03-19T00:56:46.472Z,97532.78
2023-03-19T01:01:48.183Z,97528.88
2023-03-19T01:06:50.026Z,97518.03
2023-03-19T01:11:51.863Z,97512.69
2023-03-19T01:16:53.510Z,97501.38
2023-03-19T01:21:55.168Z,97515.34
2023-03-19T01:26:58.490Z,97517.75
2023-03-19T01:32:08.366Z,97517.03
2023-03-19T01:37:21.814Z,97515.47
2023-03-19T01:42:23.911Z,97515.78
2023-03-19T01:47:52.723Z,97516.94
2023-03-19T01:53:14.935Z,97511.50
2023-03-19T01:58:26.648Z,97510.38
2023-03-19T02:03:52.696Z,97512.59
2023-03-19T02:09:01.932Z,97502.66
2023-03-19T02:14:03.666Z,97498.25
2023-03-19T02:19:11.894Z,97495.97
2023-03-19T02:24:28.895Z,97495.75
2023-03-19T02:29:38.488Z,97496.94
2023-03-19T02:34:41.542Z,97498.00
2023-03-19T02:39:49.466Z,97497.09
2023-03-19T02:44:51.215Z,97498.34
2023-03-19T02:49:53.114Z,97501.72
2023-03-19T02:54:56.827Z,97502.81
2023-03-19T02:59:59.396Z,97500.38
2023-03-19T03:05:01.063Z,97508.13
2023-03-19T03:10:02.792Z,97499.66
2023-03-19T03:15:06.738Z,97499.88
2023-03-19T03:20:11.452Z,97501.56
2023-03-19T03:25:13.866Z,97497.94
2023-03-19T03:30:16.964Z,97507.94
2023-03-19T03:35:22.259Z,97509.06
2023-03-19T03:40:23.927Z,97502.34
2023-03-19T03:45:25.652Z,97504.09
2023-03-19T03:50:27.981Z,97503.72
2023-03-19T03:55:33.075Z,97510.69
2023-03-19T04:00:35.261Z,97517.38
2023-03-19T04:05:37.879Z,97521.88
2023-03-19T04:10:42.422Z,97513.25
2023-03-19T04:15:44.623Z,97517.19
2023-03-19T04:20:47.708Z,97519.44
2023-03-19T04:25:49.454Z,97515.41
2023-03-19T04:30:51.593Z,97521.63
2023-03-19T04:35:56.612Z,97525.31
2023-03-19T04:40:58.834Z,97520.84
2023-03-19T04:46:01.384Z,97523.81
2023-03-19T04:51:04.035Z,97526.25
2023-03-19T04:56:07.957Z,97522.31
2023-03-19T05:01:10.170Z,97518.13
2023-03-19T05:06:47.208Z,97520.84
2023-03-19T05:11:50.300Z,97520.03
2023-03-19T05:16:54.915Z,97519.50
2023-03-19T05:21:59.596Z,97525.31
2023-03-19T05:27:02.832Z,97530.03
2023-03-19T05:32:14.002Z,97544.22
2023-03-19T05:37:17.157Z,97539.09
2023-03-19T05:42:22.848Z,97547.34
2023-03-19T05:47:25.043Z,97551.53
2023-03-19T05:52:29.966Z,97550.34
2023-03-19T05:57:34.577Z,97554.81
2023-03-19T06:02:43.043Z,97556.56
2023-03-19T06:08:03.076Z,97552.75
2023-03-19T06:13:43.523Z,97558.38
2023-03-19T06:18:50.132Z,97559.63
2023-03-19T06:23:51.926Z,97559.47
2023-03-19T06:28:59.395Z,97570.44
2023-03-19T06:34:01.239Z,97563.38
2023-03-19T06:39:14.171Z,97573.47
2023-03-19T06:44:16.368Z,97579.13
2023-03-19T06:49:18.104Z,97586.44
2023-03-19T06:54:19.797Z,97592.75
2023-03-19T06:59:21.442Z,97590.56
2023-03-19T07:04:23.139Z,97592.34
2023-03-19T07:09:24.837Z,97600.91
2023-03-19T07:14:26.615Z,97606.91
2023-03-19T07:19:28.302Z,97603.59
2023-03-19T07:24:29.928Z,97604.78
2023-03-19T07:29:31.634Z,97604.31
2023-03-19T07:34:33.310Z,97607.31
2023-03-19T07:39:34.986Z,97612.53
2023-03-19T07:44:36.591Z,97607.66
2023-03-19T07:49:38.183Z,97616.91
2023-03-19T07:54:39.956Z,97620.69
2023-03-19T07:59:41.541Z,97622.25
2023-03-19T08:04:43.282Z,97621.75
2023-03-19T08:09:44.998Z,97624.00
2023-03-19T08:14:46.621Z,97628.38
2023-03-19T08:19:48.269Z,97631.91
2023-03-19T08:24:49.920Z,97631.00
2023-03-19T08:29:51.544Z,97636.72
2023-03-19T08:34:53.207Z,97630.13
2023-03-19T08:39:54.910Z,97635.75
2023-03-19T08:44:56.597Z,97643.19
2023-03-19T08:49:58.198Z,97642.50
2023-03-19T08:54:59.808Z,97634.09
2023-03-19T09:00:01.974Z,97639.50
2023-03-19T09:05:04.299Z,97639.75
2023-03-19T09:10:06.569Z,97634.75
2023-03-19T09:15:08.580Z,97636.56
2023-03-19T09:20:10.889Z,97636.72
2023-03-19T09:25:12.579Z,97637.94
2023-03-19T09:30:16.692Z,97646.72
2023-03-19T09:35:18.403Z,97641.47
2023-03-19T09:40:25.216Z,97647.81
2023-03-19T09:45:29.728Z,97650.53
2023-03-19T09:50:35.011Z,97647.56
2023-03-19T09:55:51.510Z,97650.88
2023-03-19T10:00:54.039Z,97647.13
2023-03-19T10:06:13.891Z,97650.97
2023-03-19T10:11:33.560Z,97647.38
2023-03-19T10:16:40.009Z,97645.56
2023-03-19T10:22:04.198Z,97657.09
2023-03-19T10:27:12.865Z,97642.06
2023-03-19T10:32:18.946Z,97647.31
2023-03-19T10:37:27.936Z,97641.25
2023-03-19T10:43:16.360Z,97641.16
2023-03-19T10:48:19.096Z,97642.03
2023-03-19T10:53:30.744Z,97644.25
2023-03-19T10:58:34.988Z,97648.91
2023-03-19T11:03:56.184Z,97648.22
2023-03-19T11:09:03.049Z,97655.63
2023-03-19T11:14:10.147Z,97652.94
2023-03-19T11:19:41.044Z,97658.19
2023-03-19T11:24:50.561Z,97653.13
2023-03-19T11:29:52.260Z,97657.44
2023-03-19T11:35:03.186Z,97655.69
2023-03-19T11:40:22.008Z,97650.63
2023-03-19T11:45:37.418Z,97649.47
2023-03-19T11:50:48.456Z,97645.88
2023-03-19T11:56:17.547Z,97657.31
2023-03-19T12:01:34.842Z,97648.97
2023-03-19T12:07:00.949Z,97649.66
2023-03-19T12:12:18.071Z,97646.91
2023-03-19T12:17:43.793Z,97642.38
2023-03-19T12:22:59.540Z,97645.44
2023-03-19T12:28:04.020Z,97649.00
2023-03-19T12:33:30.624Z,97654.53
2023-03-19T12:38:45.341Z,97663.94
2023-03-19T12:44:21.821Z,97661.94
2023-03-19T12:49:38.976Z,97660.47
2023-03-19T12:54:45.844Z,97671.66
2023-03-19T13:00:02.410Z,97649.81
2023-03-19T13:05:09.849Z,97664.16
2023-03-19T13:10:19.645Z,97675.56
2023-03-19T13:15:29.014Z,97669.16
2023-03-19T13:20:53.919Z,97664.13
2023-03-19T13:25:58.942Z,97672.56
2023-03-19T13:31:06.211Z,97668.09
2023-03-19T13:36:14.597Z,97673.09
2023-03-19T13:41:35.319Z,97676.94
2023-03-19T13:46:39.600Z,97682.22
2023-03-19T13:51:41.639Z,97681.22
2023-03-19T13:57:00.968Z,97685.06
2023-03-19T14:02:25.533Z,97689.69
2023-03-19T14:07:30.433Z,97693.66
2023-03-19T14:12:38.205Z,97690.56
2023-03-19T14:17:47.009Z,97697.75
2023-03-19T14:22:57.216Z,97695.00
2023-03-19T14:28:09.775Z,97698.41
2023-03-19T14:33:22.341Z,97693.06
2023-03-19T14:38:44.028Z,97697.63
2023-03-19T14:44:05.769Z,97700.00
2023-03-19T14:49:13.274Z,97690.03
2023-03-19T14:54:21.713Z,97694.63
2023-03-19T14:59:23.559Z,97693.19
2023-03-19T15:04:26.250Z,97693.38
2023-03-19T15:09:31.891Z,97690.19
2023-03-19T15:15:02.116Z,97690.16
2023-03-19T15:20:17.209Z,97689.63
2023-03-19T15:25:19.541Z,97685.59
2023-03-19T15:30:24.831Z,97688.69
2023-03-19T15:35:34.418Z,97683.19
2023-03-19T15:40:37.919Z,97684.25
2023-03-19T15:45:44.959Z,97681.97
2023-03-19T15:50:49.574Z,97682.84
2023-03-19T15:55:54.473Z,97687.59
2023-03-19T16:00:56.751Z,97685.53
2023-03-19T16:06:05.069Z,97682.13
2023-03-19T16:11:15.486Z,97689.38
2023-03-19T16:16:22.386Z,97686.03
2023-03-19T16:21:41.340Z,97689.22
2023-03-19T16:26:44.671Z,97686.25
2023-03-19T16:31:52.171Z,97690.53
2023-03-19T16:36:53.978Z,97696.59
2023-03-19T16:42:29.688Z,97699.56
2023-03-19T16:47:31.430Z,97699.13
2023-03-19T16:52:33.704Z,97699.44
2023-03-19T16:57:35.401Z,97707.88
2023-03-19T17:02:37.045Z,97701.31
2023-03-19T17:07:38.668Z,97713.16
2023-03-19T17:12:40.447Z,97710.13
2023-03-19T17:17:42.169Z,97718.16
2023-03-19T17:22:43.871Z,97711.34
2023-03-19T17:27:45.867Z,97709.38
2023-03-19T17:32:49.806Z,97709.53
2023-03-19T17:37:52.583Z,97716.94
2023-03-19T17:42:55.363Z,97724.31
2023-03-19T17:47:58.380Z,97725.25
2023-03-19T17:53:00.436Z,97730.84
2023-03-19T17:58:02.063Z,97726.81
2023-03-19T18:03:03.698Z,97724.44
2023-03-19T18:08:05.465Z,97722.63
2023-03-19T18:13:07.702Z,97720.25
2023-03-19T18:18:20.307Z,97729.94
2023-03-19T18:23:24.105Z,97734.44
2023-03-19T18:28:25.805Z,97728.91
2023-03-19T18:33:31.002Z,97741.31
2023-03-19T18:38:32.877Z,97734.50
2023-03-19T18:43:35.043Z,97738.94
2023-03-19T18:48:36.727Z,97733.81
2023-03-19T18:53:38.948Z,97739.78
2023-03-19T18:58:40.987Z,97743.50
2023-03-19T19:03:45.156Z,97747.34
2023-03-19T19:08:46.883Z,97757.09
2023-03-19T19:13:56.720Z,97765.91
2023-03-19T19:18:59.640Z,97771.41
2023-03-19T19:24:04.109Z,97778.56
2023-03-19T19:29:05.874Z,97774.81
2023-03-19T19:34:07.568Z,97785.84
2023-03-19T19:39:11.583Z,97780.97
2023-03-19T19:44:22.167Z,97779.63
2023-03-19T19:49:25.112Z,97780.22
2023-03-19T19:54:26.808Z,97790.97
2023-03-19T19:59:28.526Z,97794.91
2023-03-19T20:04:30.647Z,97799.91
2023-03-19T20:09:32.320Z,97796.59
2023-03-19T20:14:33.947Z,97803.09
2023-03-19T20:19:35.545Z,97809.59
2023-03-19T20:24:37.529Z,97801.69
2023-03-19T20:29:40.055Z,97792.75
2023-03-19T20:34:41.677Z,97797.22
2023-03-19T20:39:44.368Z,97798.47
2023-03-19T20:44:46.607Z,97793.91
2023-03-19T20:49:49.039Z,97803.56
2023-03-19T20:54:50.728Z,97802.72
2023-03-19T20:59:52.336Z,97809.34
2023-03-19T21:04:54.060Z,97802.03
2023-03-19T21:09:57.610Z,97801.38
2023-03-19T21:15:00.850Z,97805.44
2023-03-19T21:20:02.539Z,97807.88
2023-03-19T21:25:07.267Z,97807.06
2023-03-19T21:30:16.387Z,97806.63
2023-03-19T21:35:22.787Z,97802.06
2023-03-19T21:40:31.226Z,97801.00
2023-03-19T21:45:38.547Z,97806.47
2023-03-19T21:50:40.275Z,97810.38
2023-03-19T21:55:42.429Z,97806.56
2023-03-19T22:00:44.711Z,97810.75
2023-03-19T22:05:50.948Z,97806.00
2023-03-19T22:10:56.873Z,97804.94
2023-03-19T22:16:01.304Z,97796.78
2023-03-19T22:21:02.941Z,97793.94
2023-03-19T22:26:30.961Z,97797.56
2023-03-19T22:31:34.030Z,97798.00
2023-03-19T22:36:35.929Z,97812.41
2023-03-19T22:41:42.583Z,97815.03
2023-03-19T22:46:44.471Z,97802.16
2023-03-19T22:51:47.279Z,97807.31
2023-03-19T22:56:48.887Z,97815.03
2023-03-19T23:01:50.528Z,97814.59
2023-03-19T23:06:54.542Z,97805.50
2023-03-19T23:11:57.900Z,97807.28
2023-03-19T23:17:07.337Z,97803.16
2023-03-19T23:22:15.773Z,97804.69
2023-03-19T23:27:26.682Z,97810.00
2023-03-19T23:32:28.889Z,97819.06
2023-03-19T23:37:30.779Z,97812.47
2023-03-19T23:42:32.538Z,97818.06
2023-03-19T23:47:35.272Z,97820.69
2023-03-19T23:52:36.855Z,97822.00
2023-03-19T23:57:38.892Z,97829.44
